Time;durP1;ratioP1;P1;durP2;ratioP2;P2;SDS_P1;SDS_P2;PMS_P1;PMS_P2;Temp;Humidity;BMP_temperature;BMP_pressure;BME280_temperature;BME280_humidity;BME280_pressure;Samples;Min_cycle;Max_cycle;Signal;HPM_P1;HPM_P2
2021/08/20 00:01:20;;;;;;;16.25;8.15;;;;;;;;;;5096937;28;20435;-84
2021/08/20 00:03:47;;;;;;;17.13;7.53;;;;;;;;;;5095826;28;20336;-85
2021/08/20 00:06:14;;;;;;;17.60;8.15;;;;;;;;;;5094075;28;20076;-85
2021/08/20 00:08:41;;;;;;;20.40;9.07;;;;;;;;;;5093468;28;20298;-85
2021/08/20 00:11:07;;;;;;;16.70;8.35;;;;;;;;;;5094584;28;20064;-85
2021/08/20 00:13:34;;;;;;;20.67;9.43;;;;;;;;;;5095937;28;20455;-85
2021/08/20 00:16:05;;;;;;;17.02;9.27;;;;;;;;;;5096102;28;20048;-86
2021/08/20 00:18:32;;;;;;;18.65;8.80;;;;;;;;;;5096452;28;20344;-85
2021/08/20 00:20:58;;;;;;;20.23;9.43;;;;;;;;;;5096406;28;20416;-85
2021/08/20 00:23:25;;;;;;;18.45;9.18;;;;;;;;;;5104750;28;20032;-86
2021/08/20 00:25:52;;;;;;;19.45;8.73;;;;;;;;;;5112987;28;20066;-87
2021/08/20 00:28:19;;;;;;;17.13;8.27;;;;;;;;;;5113327;28;20068;-86
2021/08/20 00:30:47;;;;;;;15.05;7.97;;;;;;;;;;5103400;28;20079;-87
2021/08/20 00:33:14;;;;;;;18.38;8.13;;;;;;;;;;5101485;28;20048;-87
2021/08/20 00:35:41;;;;;;;19.50;8.13;;;;;;;;;;5101665;28;20066;-87
2021/08/20 00:38:08;;;;;;;16.85;8.07;;;;;;;;;;5101903;28;20094;-86
2021/08/20 00:40:38;;;;;;;12.70;7.20;;;;;;;;;;5102215;28;20052;-87
2021/08/20 00:43:09;;;;;;;15.48;7.35;;;;;;;;;;5100082;28;20101;-87
2021/08/20 00:45:39;;;;;;;14.27;7.35;;;;;;;;;;5101710;28;20048;-87
2021/08/20 00:48:06;;;;;;;15.32;8.27;;;;;;;;;;5104713;28;20062;-87
2021/08/20 00:50:35;;;;;;;16.05;8.23;;;;;;;;;;5118616;28;20051;-86
2021/08/20 00:53:02;;;;;;;17.27;7.88;;;;;;;;;;5116146;28;20062;-87
2021/08/20 00:55:29;;;;;;;13.50;7.78;;;;;;;;;;5114467;28;20070;-87
2021/08/20 00:57:58;;;;;;;14.00;7.97;;;;;;;;;;5112464;28;20032;-87
2021/08/20 01:00:24;;;;;;;12.65;7.38;;;;;;;;;;5117283;28;20071;-88
2021/08/20 01:02:51;;;;;;;14.73;8.40;;;;;;;;;;5108549;28;20431;-87
2021/08/20 01:05:19;;;;;;;17.30;8.02;;;;;;;;;;5103000;28;20430;-87
2021/08/20 01:07:47;;;;;;;11.95;7.35;;;;;;;;;;5102783;28;20060;-88
2021/08/20 01:10:15;;;;;;;13.50;7.70;;;;;;;;;;5101980;28;20044;-88
2021/08/20 01:12:42;;;;;;;15.23;7.75;;;;;;;;;;5099833;28;20056;-88
2021/08/20 01:15:09;;;;;;;13.20;7.95;;;;;;;;;;5101649;28;20058;-88
2021/08/20 01:17:36;;;;;;;14.00;7.90;;;;;;;;;;5100989;28;20052;-87
2021/08/20 01:20:06;;;;;;;16.02;8.40;;;;;;;;;;5101216;28;20063;-87
2021/08/20 01:22:37;;;;;;;16.77;8.88;;;;;;;;;;5106144;28;20062;-87
2021/08/20 01:25:04;;;;;;;16.40;8.05;;;;;;;;;;5117573;28;20067;-87
2021/08/20 01:27:35;;;;;;;13.07;8.27;;;;;;;;;;5116961;28;20036;-88
2021/08/20 01:30:05;;;;;;;17.00;8.95;;;;;;;;;;5105159;28;20301;-87
2021/08/20 01:32:32;;;;;;;18.13;8.90;;;;;;;;;;5103125;28;20047;-87
2021/08/20 01:34:58;;;;;;;14.18;8.15;;;;;;;;;;5101189;28;20154;-88
2021/08/20 01:37:25;;;;;;;19.77;8.45;;;;;;;;;;5108611;28;20080;-87
2021/08/20 01:39:52;;;;;;;14.55;8.30;;;;;;;;;;5103047;28;20066;-87
2021/08/20 01:42:19;;;;;;;13.63;8.57;;;;;;;;;;5110412;28;20047;-85
2021/08/20 01:44:46;;;;;;;16.05;8.90;;;;;;;;;;5117329;28;20038;-86
2021/08/20 01:47:13;;;;;;;15.30;8.68;;;;;;;;;;5108319;28;20058;-87
2021/08/20 01:49:42;;;;;;;12.35;7.97;;;;;;;;;;5103438;28;20131;-87
2021/08/20 01:52:09;;;;;;;13.77;8.38;;;;;;;;;;5103725;28;20040;-86
2021/08/20 01:54:36;;;;;;;13.90;8.18;;;;;;;;;;5116943;28;20032;-86
2021/08/20 01:57:03;;;;;;;16.42;8.85;;;;;;;;;;5109819;28;20132;-87
2021/08/20 01:59:34;;;;;;;25.02;9.98;;;;;;;;;;5102499;28;20536;-87
2021/08/20 02:02:01;;;;;;;18.15;9.20;;;;;;;;;;5101833;28;20473;-88
2021/08/20 02:04:27;;;;;;;15.43;9.50;;;;;;;;;;5101421;28;20117;-85
2021/08/20 02:06:58;;;;;;;17.15;11.20;;;;;;;;;;5101456;28;20060;-84
2021/08/20 02:09:27;;;;;;;19.50;11.85;;;;;;;;;;5101739;28;20054;-84
2021/08/20 02:11:55;;;;;;;17.33;11.30;;;;;;;;;;5101354;28;20059;-84
2021/08/20 02:14:24;;;;;;;19.40;12.40;;;;;;;;;;5099748;28;20109;-84
2021/08/20 02:16:51;;;;;;;20.08;12.20;;;;;;;;;;5100372;28;20056;-84
2021/08/20 02:19:17;;;;;;;28.38;17.48;;;;;;;;;;5100381;28;20387;-84
2021/08/20 02:21:44;;;;;;;29.83;17.58;;;;;;;;;;5099002;28;20054;-84
2021/08/20 02:24:11;;;;;;;27.98;16.65;;;;;;;;;;5099652;28;20051;-84
2021/08/20 02:26:37;;;;;;;34.05;21.20;;;;;;;;;;5098658;28;20104;-84
2021/08/20 02:29:04;;;;;;;38.15;23.20;;;;;;;;;;5100014;28;20058;-84
2021/08/20 02:31:31;;;;;;;43.05;25.73;;;;;;;;;;5099264;28;20074;-84
2021/08/20 02:33:58;;;;;;;47.22;28.52;;;;;;;;;;5097882;28;20052;-84
2021/08/20 02:36:25;;;;;;;45.30;26.55;;;;;;;;;;5098705;28;20059;-84
2021/08/20 02:38:51;;;;;;;44.85;28.75;;;;;;;;;;5100376;28;20131;-84
2021/08/20 02:41:18;;;;;;;46.83;29.50;;;;;;;;;;5099101;28;20044;-84
2021/08/20 02:43:45;;;;;;;41.80;27.08;;;;;;;;;;5103065;28;20048;-84
2021/08/20 02:46:11;;;;;;;42.50;25.85;;;;;;;;;;5114844;28;20048;-83
2021/08/20 02:48:38;;;;;;;40.13;27.20;;;;;;;;;;5112122;28;20046;-84
2021/08/20 02:51:07;;;;;;;42.17;26.50;;;;;;;;;;5115854;28;20078;-85
2021/08/20 02:53:36;;;;;;;36.50;25.35;;;;;;;;;;5115485;28;20044;-85
2021/08/20 02:56:02;;;;;;;37.63;24.02;;;;;;;;;;5106480;28;20048;-87
2021/08/20 02:58:29;;;;;;;30.42;21.98;;;;;;;;;;5100605;28;20059;-87
2021/08/20 03:00:56;;;;;;;33.88;20.90;;;;;;;;;;5099821;28;20047;-86
2021/08/20 03:03:23;;;;;;;29.27;19.98;;;;;;;;;;5099625;28;20234;-86
2021/08/20 03:05:50;;;;;;;29.70;19.90;;;;;;;;;;5099480;28;20070;-86
2021/08/20 03:08:17;;;;;;;29.88;17.00;;;;;;;;;;5098981;28;20094;-85
2021/08/20 03:10:44;;;;;;;23.50;14.98;;;;;;;;;;5098808;28;20083;-85
2021/08/20 03:13:15;;;;;;;23.38;15.00;;;;;;;;;;5100130;28;20087;-85
2021/08/20 03:15:41;;;;;;;19.08;13.60;;;;;;;;;;5099935;28;20343;-86
2021/08/20 03:18:10;;;;;;;19.15;13.48;;;;;;;;;;5101005;28;20048;-88
2021/08/20 03:20:43;;;;;;;19.83;13.85;;;;;;;;;;5099112;28;20040;-87
2021/08/20 03:23:10;;;;;;;15.93;11.55;;;;;;;;;;5097730;28;20058;-87
2021/08/20 03:25:36;;;;;;;16.08;11.23;;;;;;;;;;5099311;28;20107;-87
2021/08/20 03:28:06;;;;;;;16.15;11.13;;;;;;;;;;5104192;28;20081;-87
2021/08/20 03:30:33;;;;;;;16.38;11.57;;;;;;;;;;5109344;28;20082;-86
2021/08/20 03:33:00;;;;;;;16.10;10.57;;;;;;;;;;5110063;28;20051;-85
2021/08/20 03:35:26;;;;;;;18.17;10.82;;;;;;;;;;5111762;28;20108;-85
2021/08/20 03:37:54;;;;;;;18.48;10.52;;;;;;;;;;5110730;28;20070;-85
2021/08/20 03:40:24;;;;;;;14.77;9.88;;;;;;;;;;5109199;28;20055;-84
2021/08/20 03:42:51;;;;;;;13.48;9.80;;;;;;;;;;5099676;28;20138;-85
2021/08/20 03:45:19;;;;;;;13.27;9.93;;;;;;;;;;5100153;28;20052;-86
2021/08/20 03:47:47;;;;;;;13.73;9.95;;;;;;;;;;5099463;28;20044;-85
2021/08/20 03:50:15;;;;;;;15.23;10.65;;;;;;;;;;5099736;28;20051;-86
2021/08/20 03:52:47;;;;;;;18.05;10.68;;;;;;;;;;5096749;28;20068;-85
2021/08/20 03:55:15;;;;;;;18.52;10.93;;;;;;;;;;5098637;28;20048;-86
2021/08/20 03:57:41;;;;;;;14.98;10.13;;;;;;;;;;5097018;28;20475;-87
2021/08/20 04:00:18;;;;;;;14.25;10.50;;;;;;;;;;5098536;28;20062;-86
2021/08/20 04:02:44;;;;;;;;;;;;;;;;;;5098946;28;20056;-87
2021/08/20 04:05:11;;;;;;;13.30;9.73;;;;;;;;;;5102189;28;20351;-86
2021/08/20 04:07:37;;;;;;;12.05;9.23;;;;;;;;;;5111807;28;20051;-86
2021/08/20 04:10:08;;;;;;;15.23;10.43;;;;;;;;;;5117236;28;20032;-86
2021/08/20 04:12:34;;;;;;;12.90;9.20;;;;;;;;;;5146445;27;20070;-87
2021/08/20 04:15:01;;;;;;;15.85;9.43;;;;;;;;;;5117143;28;20058;-88
2021/08/20 04:17:27;;;;;;;14.75;9.48;;;;;;;;;;5116553;28;20043;-88
2021/08/20 04:19:54;;;;;;;23.35;9.98;;;;;;;;;;5111011;28;20412;-88
2021/08/20 04:22:21;;;;;;;16.33;8.88;;;;;;;;;;5103250;28;20048;-87
2021/08/20 04:24:48;;;;;;;12.98;9.45;;;;;;;;;;5102545;28;20040;-86
2021/08/20 04:27:18;;;;;;;13.20;9.32;;;;;;;;;;5103020;28;20059;-87
2021/08/20 04:29:46;;;;;;;13.18;9.35;;;;;;;;;;5101671;28;20048;-86
2021/08/20 04:32:12;;;;;;;13.48;9.35;;;;;;;;;;5104256;28;20295;-86
2021/08/20 04:34:39;;;;;;;19.58;10.52;;;;;;;;;;5105884;28;20059;-87
2021/08/20 04:37:06;;;;;;;17.23;10.95;;;;;;;;;;5113694;28;20056;-86
2021/08/20 04:39:35;;;;;;;16.52;11.20;;;;;;;;;;5111944;28;20052;-86
2021/08/20 04:42:02;;;;;;;17.65;12.45;;;;;;;;;;5103851;28;20069;-86
2021/08/20 04:44:30;;;;;;;18.27;11.07;;;;;;;;;;5103806;28;20056;-85
2021/08/20 04:46:57;;;;;;;14.65;10.82;;;;;;;;;;5102868;28;20050;-86
2021/08/20 04:49:42;;;;;;;18.23;11.98;;;;;;;;;;5103478;28;20044;-86
2021/08/20 04:52:09;;;;;;;24.00;13.43;;;;;;;;;;5109977;28;20047;-86
2021/08/20 04:54:36;;;;;;;20.75;12.82;;;;;;;;;;5114987;28;20059;-85
2021/08/20 04:57:02;;;;;;;22.88;13.68;;;;;;;;;;5110539;28;20052;-86
2021/08/20 04:59:31;;;;;;;20.90;13.77;;;;;;;;;;5101169;28;20058;-85
2021/08/20 05:01:58;;;;;;;24.23;14.05;;;;;;;;;;5099710;28;20055;-85
2021/08/20 05:04:25;;;;;;;22.35;13.50;;;;;;;;;;5113016;28;20051;-84
2021/08/20 05:06:52;;;;;;;23.83;14.95;;;;;;;;;;5109865;28;20326;-86
2021/08/20 05:09:23;;;;;;;24.45;15.70;;;;;;;;;;5103929;28;20411;-85
2021/08/20 05:11:49;;;;;;;27.13;15.40;;;;;;;;;;5100566;28;20090;-85
2021/08/20 05:14:16;;;;;;;23.55;14.52;;;;;;;;;;5100064;28;20047;-86
2021/08/20 05:16:44;;;;;;;27.75;15.48;;;;;;;;;;5098289;28;20404;-85
2021/08/20 05:19:12;;;;;;;23.73;15.18;;;;;;;;;;5098597;28;20146;-84
2021/08/20 05:21:38;;;;;;;29.38;17.27;;;;;;;;;;5095712;28;20069;-84
2021/08/20 05:24:05;;;;;;;28.70;15.75;;;;;;;;;;5096904;28;20059;-84
2021/08/20 05:26:32;;;;;;;28.42;16.50;;;;;;;;;;5097633;28;20160;-84
2021/08/20 05:28:58;;;;;;;26.10;17.05;;;;;;;;;;5110801;28;20046;-86
2021/08/20 05:31:25;;;;;;;29.92;17.52;;;;;;;;;;5111545;28;20122;-83
2021/08/20 05:33:58;;;;;;;29.33;17.35;;;;;;;;;;5100580;28;20144;-83
2021/08/20 05:36:25;;;;;;;31.67;18.80;;;;;;;;;;5100668;28;20056;-84
2021/08/20 05:38:52;;;;;;;29.88;19.58;;;;;;;;;;5098431;28;20184;-85
2021/08/20 05:41:32;;;;;;;31.27;20.65;;;;;;;;;;5098358;28;20040;-83
2021/08/20 05:44:09;;;;;;;31.70;20.50;;;;;;;;;;5096961;28;20044;-83
2021/08/20 05:46:36;;;;;;;33.85;21.10;;;;;;;;;;5094129;28;20257;-84
2021/08/20 05:49:05;;;;;;;32.88;20.83;;;;;;;;;;5096668;28;20040;-84
2021/08/20 05:51:32;;;;;;;36.63;22.67;;;;;;;;;;5097943;28;20059;-84
2021/08/20 05:54:05;;;;;;;37.28;22.90;;;;;;;;;;5128410;27;20048;-84
2021/08/20 05:56:32;;;;;;;36.17;22.90;;;;;;;;;;5095431;28;20095;-84
2021/08/20 05:58:58;;;;;;;43.80;24.02;;;;;;;;;;5102313;28;20104;-83
2021/08/20 06:01:25;;;;;;;42.85;26.92;;;;;;;;;;5110505;28;20136;-83
2021/08/20 06:03:52;;;;;;;48.85;28.25;;;;;;;;;;5108860;28;20052;-83
2021/08/20 06:06:19;;;;;;;46.95;28.77;;;;;;;;;;5095308;28;20040;-83
2021/08/20 06:08:46;;;;;;;51.35;29.58;;;;;;;;;;5055814;28;20049;-83
2021/08/20 06:11:13;;;;;;;51.08;31.45;;;;;;;;;;5083637;28;20045;-83
2021/08/20 06:13:40;;;;;;;49.42;29.75;;;;;;;;;;5099644;28;20375;-84
2021/08/20 06:16:07;;;;;;;49.38;32.28;;;;;;;;;;5080163;28;20041;-84
2021/08/20 06:18:34;;;;;;;46.03;31.17;;;;;;;;;;5070498;28;20061;-84
2021/08/20 06:21:00;;;;;;;46.70;30.95;;;;;;;;;;5068982;28;20053;-84
2021/08/20 06:23:27;;;;;;;53.83;33.08;;;;;;;;;;5052010;28;20052;-84
2021/08/20 06:25:54;;;;;;;52.75;33.40;;;;;;;;;;5052203;28;20068;-84
2021/08/20 06:28:21;;;;;;;51.22;35.45;;;;;;;;;;5051640;28;20049;-83
2021/08/20 06:30:51;;;;;;;53.88;34.13;;;;;;;;;;5069505;28;20429;-84
2021/08/20 06:33:18;;;;;;;52.67;34.63;;;;;;;;;;5085427;28;20110;-83
2021/08/20 06:35:44;;;;;;;55.33;35.92;;;;;;;;;;5068223;28;20057;-84
2021/08/20 06:38:11;;;;;;;50.15;33.30;;;;;;;;;;5053732;28;20055;-83
2021/08/20 06:40:38;;;;;;;55.97;34.97;;;;;;;;;;5053934;28;20063;-83
2021/08/20 06:43:04;;;;;;;50.22;32.53;;;;;;;;;;5069438;28;20352;-83
2021/08/20 06:45:32;;;;;;;51.55;35.45;;;;;;;;;;5054645;28;20071;-83
2021/08/20 06:48:00;;;;;;;51.35;35.03;;;;;;;;;;5067625;28;20203;-83
2021/08/20 06:50:29;;;;;;;53.47;35.38;;;;;;;;;;5084915;28;20096;-82
2021/08/20 06:52:56;;;;;;;41.33;30.30;;;;;;;;;;5069087;28;20080;-83
2021/08/20 06:55:23;;;;;;;45.65;31.45;;;;;;;;;;5084490;28;20061;-83
2021/08/20 06:57:49;;;;;;;42.30;30.75;;;;;;;;;;5068883;28;20100;-85
2021/08/20 07:00:16;;;;;;;40.85;31.05;;;;;;;;;;5095302;28;20139;-82
2021/08/20 07:02:45;;;;;;;38.60;29.10;;;;;;;;;;5071048;28;20045;-83
2021/08/20 07:05:13;;;;;;;50.10;31.35;;;;;;;;;;5056552;28;20407;-84
2021/08/20 07:07:40;;;;;;;45.28;32.40;;;;;;;;;;5082560;28;20063;-83
2021/08/20 07:10:17;;;;;;;42.28;31.13;;;;;;;;;;5109237;28;20062;-84
2021/08/20 07:12:44;;;;;;;48.58;33.35;;;;;;;;;;5101832;28;20055;-83
2021/08/20 07:15:12;;;;;;;47.60;32.90;;;;;;;;;;5096005;28;20052;-84
2021/08/20 07:17:39;;;;;;;45.65;30.83;;;;;;;;;;5104049;28;20048;-84
2021/08/20 07:20:07;;;;;;;47.00;30.90;;;;;;;;;;5110258;28;20040;-83
2021/08/20 07:22:38;;;;;;;47.92;32.85;;;;;;;;;;5109610;28;20055;-83
2021/08/20 07:25:08;;;;;;;50.30;33.22;;;;;;;;;;5109693;28;20048;-84
2021/08/20 07:27:41;;;;;;;51.28;33.88;;;;;;;;;;5134445;27;20052;-83
2021/08/20 07:30:09;;;;;;;51.83;32.75;;;;;;;;;;5094616;28;20052;-83
2021/08/20 07:32:36;;;;;;;53.20;33.70;;;;;;;;;;5097032;28;20172;-81
2021/08/20 07:35:03;;;;;;;46.75;31.55;;;;;;;;;;5093295;28;20052;-82
2021/08/20 07:37:29;;;;;;;51.03;34.97;;;;;;;;;;5095828;28;20040;-85
2021/08/20 07:39:56;;;;;;;44.60;30.63;;;;;;;;;;5097709;28;20146;-84
2021/08/20 07:42:23;;;;;;;47.85;31.50;;;;;;;;;;5100658;28;20051;-85
2021/08/20 07:44:50;;;;;;;43.13;29.38;;;;;;;;;;5099400;28;20085;-84
2021/08/20 07:47:17;;;;;;;40.45;28.27;;;;;;;;;;5100247;28;20050;-84
2021/08/20 07:49:56;;;;;;;43.00;27.55;;;;;;;;;;5099907;28;20388;-85
2021/08/20 07:52:23;;;;;;;38.30;25.27;;;;;;;;;;5096637;28;20071;-85
2021/08/20 07:54:55;;;;;;;38.33;23.95;;;;;;;;;;5098944;28;20055;-85
2021/08/20 07:57:22;;;;;;;28.45;21.55;;;;;;;;;;5100556;28;20058;-85
2021/08/20 07:59:49;;;;;;;34.03;22.58;;;;;;;;;;5098414;28;20048;-85
2021/08/20 08:02:15;;;;;;;31.48;19.83;;;;;;;;;;5105065;28;20036;-85
2021/08/20 08:04:49;;;;;;;29.38;19.33;;;;;;;;;;5112918;28;20074;-85
2021/08/20 08:07:16;;;;;;;27.15;18.85;;;;;;;;;;5105144;28;20123;-85
2021/08/20 08:09:45;;;;;;;28.98;18.50;;;;;;;;;;5099957;28;20387;-85
2021/08/20 08:12:14;;;;;;;23.23;18.30;;;;;;;;;;5100698;28;20058;-85
2021/08/20 08:14:44;;;;;;;25.77;15.52;;;;;;;;;;5113351;28;20212;-85
2021/08/20 08:17:11;;;;;;;23.45;15.18;;;;;;;;;;5108082;28;20044;-86
2021/08/20 08:19:37;;;;;;;22.23;14.88;;;;;;;;;;5106167;28;20052;-86
2021/08/20 08:22:04;;;;;;;22.52;13.45;;;;;;;;;;5107395;28;20048;-86
2021/08/20 08:24:31;;;;;;;22.33;14.55;;;;;;;;;;5113737;28;20040;-86
2021/08/20 08:26:57;;;;;;;21.90;13.10;;;;;;;;;;5112278;28;20059;-86
2021/08/20 08:29:24;;;;;;;18.52;12.57;;;;;;;;;;5110505;28;20254;-86
2021/08/20 08:31:52;;;;;;;16.40;11.30;;;;;;;;;;5112681;28;20113;-86
2021/08/20 08:34:19;;;;;;;18.75;10.63;;;;;;;;;;5105136;28;20389;-86
2021/08/20 08:36:46;;;;;;;14.38;9.60;;;;;;;;;;5095468;28;20274;-86
2021/08/20 08:39:13;;;;;;;16.40;8.93;;;;;;;;;;5098442;28;20225;-87
2021/08/20 08:41:39;;;;;;;17.67;9.48;;;;;;;;;;5099480;28;20040;-87
2021/08/20 08:44:06;;;;;;;16.70;8.40;;;;;;;;;;5093177;28;20058;-87
2021/08/20 08:46:43;;;;;;;11.00;8.25;;;;;;;;;;5096252;28;20064;-88
2021/08/20 08:49:13;;;;;;;12.40;7.85;;;;;;;;;;5095870;28;20053;-87
2021/08/20 08:51:39;;;;;;;11.57;8.27;;;;;;;;;;5096521;28;20423;-88
2021/08/20 08:54:11;;;;;;;11.63;7.53;;;;;;;;;;5097260;28;20125;-86
2021/08/20 08:56:40;;;;;;;11.88;8.15;;;;;;;;;;5095938;28;20044;-87
2021/08/20 08:59:07;;;;;;;20.10;9.13;;;;;;;;;;5095641;28;20070;-87
2021/08/20 09:01:38;;;;;;;13.07;9.45;;;;;;;;;;5078147;28;20070;-86
2021/08/20 09:04:11;;;;;;;14.40;8.88;;;;;;;;;;5096647;28;20300;-87
2021/08/20 09:06:58;;;;;;;15.25;9.75;;;;;;;;;;5075766;28;20365;-87
2021/08/20 09:09:26;;;;;;;12.85;7.30;;;;;;;;;;5077569;28;20040;-87
2021/08/20 09:11:54;;;;;;;15.32;9.07;;;;;;;;;;5121987;28;20646;-85
2021/08/20 09:14:28;;;;;;;15.15;7.68;;;;;;;;;;5090255;28;20044;-86
2021/08/20 09:16:55;;;;;;;10.50;7.45;;;;;;;;;;5082818;28;20069;-87
2021/08/20 09:19:23;;;;;;;12.02;7.85;;;;;;;;;;5091066;28;20417;-87
2021/08/20 09:21:56;;;;;;;9.85;6.75;;;;;;;;;;5076577;28;20167;-86
2021/08/20 09:24:29;;;;;;;9.13;5.78;;;;;;;;;;5078197;28;20057;-87
2021/08/20 09:27:25;;;;;;;8.60;5.82;;;;;;;;;;5092664;28;20040;-86
2021/08/20 09:29:58;;;;;;;7.60;6.18;;;;;;;;;;5094950;28;20372;-88
2021/08/20 09:32:25;;;;;;;8.10;5.40;;;;;;;;;;5089614;28;20139;-88
2021/08/20 09:34:58;;;;;;;7.28;4.25;;;;;;;;;;5087770;28;20210;-87
2021/08/20 09:37:28;;;;;;;7.57;3.88;;;;;;;;;;5088159;28;20047;-88
2021/08/20 09:40:02;;;;;;;5.43;3.38;;;;;;;;;;5104472;28;20070;-87
2021/08/20 09:42:33;;;;;;;12.40;5.18;;;;;;;;;;5089386;28;20319;-89
2021/08/20 09:45:29;;;;;;;7.10;4.25;;;;;;;;;;5093487;28;20408;-87
2021/08/20 09:48:02;;;;;;;8.18;4.45;;;;;;;;;;5089295;28;20065;-88
2021/08/20 09:50:40;;;;;;;8.50;4.85;;;;;;;;;;5106430;28;20239;-88
2021/08/20 09:53:11;;;;;;;7.82;4.53;;;;;;;;;;5103530;28;20050;-88
2021/08/20 09:55:50;;;;;;;5.43;4.05;;;;;;;;;;5085961;28;20098;-88
2021/08/20 09:58:41;;;;;;;8.95;4.45;;;;;;;;;;5085959;28;20089;-88
2021/08/20 10:01:08;;;;;;;7.07;3.92;;;;;;;;;;5126052;27;20051;-88
2021/08/20 10:03:36;;;;;;;7.90;4.22;;;;;;;;;;5095165;28;20072;-86
2021/08/20 10:06:03;;;;;;;6.07;3.67;;;;;;;;;;5129563;27;20040;-89
2021/08/20 10:08:32;;;;;;;6.32;3.75;;;;;;;;;;5095631;28;20051;-89
2021/08/20 10:10:59;;;;;;;7.00;3.47;;;;;;;;;;5095925;28;20082;-87
2021/08/20 10:13:36;;;;;;;6.45;4.50;;;;;;;;;;5090626;28;20412;-87
2021/08/20 10:16:04;;;;;;;6.35;3.45;;;;;;;;;;5090015;28;20430;-87
2021/08/20 10:18:30;;;;;;;6.78;4.07;;;;;;;;;;5089357;28;20083;-89
2021/08/20 10:20:58;;;;;;;10.18;5.07;;;;;;;;;;5099302;28;20030;-89
2021/08/20 10:23:43;;;;;;;10.30;4.13;;;;;;;;;;5102822;28;20039;-90
2021/08/20 10:26:27;;;;;;;9.77;4.50;;;;;;;;;;5092687;28;20044;-85
2021/08/20 10:28:55;;;;;;;6.93;4.10;;;;;;;;;;5090170;28;20044;-85
2021/08/20 10:31:22;;;;;;;8.52;4.70;;;;;;;;;;5088762;28;20099;-85
2021/08/20 10:33:52;;;;;;;8.30;4.35;;;;;;;;;;5090704;28;20135;-86
2021/08/20 10:36:34;;;;;;;5.80;4.00;;;;;;;;;;5089328;28;20102;-85
2021/08/20 10:39:02;;;;;;;9.32;4.15;;;;;;;;;;5108619;28;20288;-85
2021/08/20 10:41:29;;;;;;;6.05;4.50;;;;;;;;;;5069194;28;20300;-86
2021/08/20 10:44:03;;;;;;;6.72;4.57;;;;;;;;;;5102383;28;20367;-86
2021/08/20 10:46:34;;;;;;;9.75;5.13;;;;;;;;;;5079262;28;20197;-85
2021/08/20 10:49:10;;;;;;;7.18;3.60;;;;;;;;;;5091226;28;20083;-86
2021/08/20 10:51:57;;;;;;;7.43;4.03;;;;;;;;;;5093946;28;20052;-86
2021/08/20 10:54:30;;;;;;;7.82;4.07;;;;;;;;;;5078706;28;20078;-87
2021/08/20 10:57:06;;;;;;;6.93;4.03;;;;;;;;;;5070161;28;20158;-86
2021/08/20 10:59:37;;;;;;;6.10;4.20;;;;;;;;;;5110016;28;20051;-85
2021/08/20 11:02:19;;;;;;;8.00;3.88;;;;;;;;;;5110145;28;20048;-86
2021/08/20 11:05:05;;;;;;;5.88;3.47;;;;;;;;;;5109237;28;20050;-85
2021/08/20 11:07:34;;;;;;;5.03;3.35;;;;;;;;;;5085435;28;20044;-86
2021/08/20 11:10:08;;;;;;;6.10;3.35;;;;;;;;;;5087967;28;20341;-86
2021/08/20 11:12:39;;;;;;;6.88;3.45;;;;;;;;;;5091803;28;20195;-85
2021/08/20 11:15:18;;;;;;;7.88;4.07;;;;;;;;;;5096722;28;20048;-85
2021/08/20 11:17:51;;;;;;;6.63;3.47;;;;;;;;;;5092201;28;20070;-86
2021/08/20 11:20:26;;;;;;;9.80;3.97;;;;;;;;;;5098719;28;20051;-86
2021/08/20 11:23:12;;;;;;;7.60;4.90;;;;;;;;;;5097985;28;20147;-87
2021/08/20 11:26:03;;;;;;;6.90;4.53;;;;;;;;;;5106665;28;20265;-85
2021/08/20 11:28:31;;;;;;;10.02;5.32;;;;;;;;;;5099987;28;20093;-88
2021/08/20 11:31:04;;;;;;;6.03;3.95;;;;;;;;;;5095550;28;20164;-85
2021/08/20 11:33:31;;;;;;;6.60;4.53;;;;;;;;;;5095524;28;20044;-86
2021/08/20 11:36:03;;;;;;;10.05;5.20;;;;;;;;;;5094096;28;20047;-85
2021/08/20 11:38:39;;;;;;;8.18;3.67;;;;;;;;;;5093450;28;20048;-86
2021/08/20 11:41:12;;;;;;;7.93;4.35;;;;;;;;;;5134855;27;20055;-86
2021/08/20 11:43:57;;;;;;;9.70;4.32;;;;;;;;;;5114406;28;20276;-86
2021/08/20 11:46:55;;;;;;;9.57;5.35;;;;;;;;;;5114153;28;20043;-85
2021/08/20 11:49:26;;;;;;;8.38;5.22;;;;;;;;;;5116036;28;20074;-85
2021/08/20 11:52:01;;;;;;;10.18;4.85;;;;;;;;;;5114304;28;20032;-86
2021/08/20 11:54:36;;;;;;;8.90;4.80;;;;;;;;;;5086282;28;20056;-85
2021/08/20 11:57:03;;;;;;;7.43;4.55;;;;;;;;;;5084860;28;20079;-86
2021/08/20 11:59:31;;;;;;;7.53;4.43;;;;;;;;;;5084702;28;20056;-86
2021/08/20 12:02:18;;;;;;;9.95;5.10;;;;;;;;;;5085108;28;20256;-86
2021/08/20 12:04:45;;;;;;;9.07;4.80;;;;;;;;;;5079484;28;20110;-86
2021/08/20 12:07:12;;;;;;;7.13;4.38;;;;;;;;;;5097297;28;20087;-85
2021/08/20 12:09:41;;;;;;;7.95;4.80;;;;;;;;;;5094153;28;20056;-86
2021/08/20 12:12:21;;;;;;;7.82;4.13;;;;;;;;;;5097106;28;20048;-85
2021/08/20 12:14:53;;;;;;;6.18;3.85;;;;;;;;;;5095899;28;20455;-86
2021/08/20 12:17:28;;;;;;;7.03;3.63;;;;;;;;;;5093478;28;20059;-85
2021/08/20 12:19:56;;;;;;;;;;;;;;;;;;5103469;28;20047;-87
2021/08/20 12:22:49;;;;;;;5.65;3.88;;;;;;;;;;5107246;28;19938;-86
2021/08/20 12:25:17;;;;;;;5.13;3.17;;;;;;;;;;5102922;28;20079;-87
2021/08/20 12:27:46;;;;;;;6.25;3.53;;;;;;;;;;5106482;28;20079;-85
2021/08/20 12:30:31;;;;;;;7.28;4.28;;;;;;;;;;5111432;28;20050;-86
2021/08/20 12:32:59;;;;;;;7.85;4.00;;;;;;;;;;5103250;28;20044;-86
2021/08/20 12:35:26;;;;;;;11.20;4.40;;;;;;;;;;5098844;28;20047;-87
2021/08/20 12:38:08;;;;;;;10.30;3.47;;;;;;;;;;5098374;28;20067;-86
2021/08/20 12:40:36;;;;;;;11.15;4.57;;;;;;;;;;5097986;28;20056;-86
2021/08/20 12:43:03;;;;;;;10.20;4.93;;;;;;;;;;5098848;28;20050;-86
2021/08/20 12:45:30;;;;;;;10.32;4.10;;;;;;;;;;5118671;27;20047;-84
2021/08/20 12:48:05;;;;;;;11.18;4.75;;;;;;;;;;5114699;28;20044;-86
2021/08/20 12:50:34;;;;;;;6.22;4.25;;;;;;;;;;5105364;28;20074;-85
2021/08/20 12:53:02;;;;;;;10.98;4.70;;;;;;;;;;5110818;28;20082;-86
2021/08/20 12:55:40;;;;;;;11.98;4.78;;;;;;;;;;5144880;27;20235;-85
2021/08/20 12:58:07;;;;;;;6.35;4.07;;;;;;;;;;5094007;28;20102;-86
2021/08/20 13:00:35;;;;;;;8.27;4.43;;;;;;;;;;5091095;28;20442;-85
2021/08/20 13:03:09;;;;;;;9.85;5.22;;;;;;;;;;5094414;28;20304;-87
2021/08/20 13:05:58;;;;;;;7.80;4.82;;;;;;;;;;5090791;28;20305;-86
2021/08/20 13:08:27;;;;;;;9.50;5.00;;;;;;;;;;5094413;28;20167;-86
2021/08/20 13:10:55;;;;;;;9.93;6.00;;;;;;;;;;5099432;28;20115;-86
2021/08/20 13:13:22;;;;;;;7.68;4.45;;;;;;;;;;5097091;28;20052;-84
2021/08/20 13:15:49;;;;;;;10.50;5.50;;;;;;;;;;5128853;27;20044;-86
2021/08/20 13:18:16;;;;;;;7.20;4.00;;;;;;;;;;5084646;28;20329;-85
2021/08/20 13:20:44;;;;;;;9.38;4.60;;;;;;;;;;5075424;28;20047;-87
2021/08/20 13:23:14;;;;;;;7.45;5.00;;;;;;;;;;5074814;28;20216;-86
2021/08/20 13:25:40;;;;;;;7.03;4.00;;;;;;;;;;5089947;28;20109;-85
2021/08/20 13:28:10;;;;;;;6.78;4.25;;;;;;;;;;5096455;28;20040;-86
2021/08/20 13:30:37;;;;;;;6.47;4.10;;;;;;;;;;5093399;28;20054;-85
2021/08/20 13:33:04;;;;;;;6.50;3.88;;;;;;;;;;5095694;28;20064;-86
2021/08/20 13:35:31;;;;;;;6.15;4.22;;;;;;;;;;5096008;28;20048;-86
2021/08/20 13:37:58;;;;;;;6.32;4.35;;;;;;;;;;5127762;27;20223;-86
2021/08/20 13:40:28;;;;;;;7.80;3.78;;;;;;;;;;5087792;28;20383;-86
2021/08/20 13:43:11;;;;;;;5.18;3.42;;;;;;;;;;5088749;28;20500;-86
2021/08/20 13:45:43;;;;;;;6.38;3.95;;;;;;;;;;5101784;28;20062;-86
2021/08/20 13:48:10;;;;;;;6.95;3.58;;;;;;;;;;5106971;28;20036;-86
2021/08/20 13:50:41;;;;;;;5.35;3.20;;;;;;;;;;5095658;28;20408;-86
2021/08/20 13:53:08;;;;;;;8.63;4.07;;;;;;;;;;5091107;28;20164;-86
2021/08/20 13:55:35;;;;;;;13.68;4.65;;;;;;;;;;5089635;28;20075;-86
2021/08/20 13:58:16;;;;;;;10.95;5.60;;;;;;;;;;5092818;28;20067;-86
2021/08/20 14:00:42;;;;;;;7.70;5.60;;;;;;;;;;5093693;28;20486;-86
2021/08/20 14:03:10;;;;;;;9.55;6.18;;;;;;;;;;5094709;28;20104;-85
2021/08/20 14:05:43;;;;;;;13.00;6.38;;;;;;;;;;5096747;28;20366;-86
2021/08/20 14:08:13;;;;;;;10.15;5.85;;;;;;;;;;5091765;28;20327;-86
2021/08/20 14:10:41;;;;;;;8.57;5.20;;;;;;;;;;5090895;28;20048;-86
2021/08/20 14:13:08;;;;;;;7.82;4.82;;;;;;;;;;5095105;28;20408;-86
2021/08/20 14:15:35;;;;;;;8.05;5.35;;;;;;;;;;5106074;28;20258;-86
2021/08/20 14:18:03;;;;;;;11.40;6.63;;;;;;;;;;5107010;28;20089;-86
2021/08/20 14:20:30;;;;;;;7.57;5.10;;;;;;;;;;5105539;28;20103;-85
2021/08/20 14:23:03;;;;;;;7.28;5.03;;;;;;;;;;5098678;28;20052;-86
2021/08/20 14:25:30;;;;;;;8.57;5.55;;;;;;;;;;5104285;28;20099;-85
2021/08/20 14:27:57;;;;;;;10.65;5.25;;;;;;;;;;5099568;28;20108;-85
2021/08/20 14:30:24;;;;;;;11.68;7.15;;;;;;;;;;5070940;28;20442;-85
2021/08/20 14:32:50;;;;;;;9.45;5.68;;;;;;;;;;5069663;28;20108;-85
2021/08/20 14:35:18;;;;;;;12.30;7.95;;;;;;;;;;5091046;28;20044;-85
2021/08/20 14:37:45;;;;;;;10.75;6.53;;;;;;;;;;5094736;28;20205;-85
2021/08/20 14:40:12;;;;;;;9.40;5.90;;;;;;;;;;5093145;28;20051;-86
2021/08/20 14:42:39;;;;;;;12.05;6.05;;;;;;;;;;5089841;28;20079;-86